sensor_id;sensor_type;location;lat;lon;timestamp;temperature;humidity
61323;DHT22;47203;48.428;11.974;2024-01-07T00:01:36;9.20;64.10
61323;DHT22;47203;48.428;11.974;2024-01-07T00:03:40;9.20;64.10
61323;DHT22;47203;48.428;11.974;2024-01-07T00:05:44;9.20;64.10
61323;DHT22;47203;48.428;11.974;2024-01-07T00:07:49;9.20;64.20
61323;DHT22;47203;48.428;11.974;2024-01-07T00:09:52;8.10;63.50
61323;DHT22;47203;48.428;11.974;2024-01-07T00:11:57;9.20;64.20
61323;DHT22;47203;48.428;11.974;2024-01-07T00:14:02;9.20;64.20
61323;DHT22;47203;48.428;11.974;2024-01-07T00:16:06;9.20;64.10
61323;DHT22;47203;48.428;11.974;2024-01-07T00:18:10;9.20;64.10
61323;DHT22;47203;48.428;11.974;2024-01-07T00:20:13;9.20;64.10
61323;DHT22;47203;48.428;11.974;2024-01-07T00:22:17;9.20;64.10
61323;DHT22;47203;48.428;11.974;2024-01-07T00:24:22;9.20;64.20
61323;DHT22;47203;48.428;11.974;2024-01-07T00:26:27;9.10;64.10
61323;DHT22;47203;48.428;11.974;2024-01-07T00:28:32;9.20;64.20
61323;DHT22;47203;48.428;11.974;2024-01-07T00:30:36;9.20;64.30
61323;DHT22;47203;48.428;11.974;2024-01-07T00:32:39;9.10;64.20
61323;DHT22;47203;48.428;11.974;2024-01-07T00:34:42;9.20;64.30
61323;DHT22;47203;48.428;11.974;2024-01-07T00:36:45;9.10;64.30
61323;DHT22;47203;48.428;11.974;2024-01-07T00:38:48;9.10;64.30
61323;DHT22;47203;48.428;11.974;2024-01-07T00:40:53;9.10;64.30
61323;DHT22;47203;48.428;11.974;2024-01-07T00:42:56;9.10;64.30
61323;DHT22;47203;48.428;11.974;2024-01-07T00:45:01;9.10;64.30
61323;DHT22;47203;48.428;11.974;2024-01-07T00:47:04;9.10;64.40
61323;DHT22;47203;48.428;11.974;2024-01-07T00:49:08;9.10;64.40
61323;DHT22;47203;48.428;11.974;2024-01-07T00:51:11;9.10;64.40
61323;DHT22;47203;48.428;11.974;2024-01-07T00:53:14;9.10;64.40
61323;DHT22;47203;48.428;11.974;2024-01-07T00:55:17;9.10;64.50
61323;DHT22;47203;48.428;11.974;2024-01-07T00:57:22;9.20;64.30
61323;DHT22;47203;48.428;11.974;2024-01-07T00:59:27;9.10;64.50
61323;DHT22;47203;48.428;11.974;2024-01-07T01:01:32;9.10;64.50
61323;DHT22;47203;48.428;11.974;2024-01-07T01:03:36;9.10;65.20
61323;DHT22;47203;48.428;11.974;2024-01-07T01:05:41;9.10;64.60
61323;DHT22;47203;48.428;11.974;2024-01-07T01:07:44;9.10;64.60
61323;DHT22;47203;48.428;11.974;2024-01-07T01:09:48;9.00;64.50
61323;DHT22;47203;48.428;11.974;2024-01-07T01:11:51;9.10;64.60
61323;DHT22;47203;48.428;11.974;2024-01-07T01:13:54;9.10;64.60
61323;DHT22;47203;48.428;11.974;2024-01-07T01:15:58;9.10;64.60
61323;DHT22;47203;48.428;11.974;2024-01-07T01:18:03;9.10;64.60
61323;DHT22;47203;48.428;11.974;2024-01-07T01:20:10;9.10;64.70
61323;DHT22;47203;48.428;11.974;2024-01-07T01:22:14;9.10;64.70
61323;DHT22;47203;48.428;11.974;2024-01-07T01:24:18;9.10;64.70
61323;DHT22;47203;48.428;11.974;2024-01-07T01:26:21;9.20;64.80
61323;DHT22;47203;48.428;11.974;2024-01-07T01:28:24;9.20;64.80
61323;DHT22;47203;48.428;11.974;2024-01-07T01:30:28;9.20;64.80
61323;DHT22;47203;48.428;11.974;2024-01-07T01:32:33;9.10;64.70
61323;DHT22;47203;48.428;11.974;2024-01-07T01:34:40;9.20;64.80
61323;DHT22;47203;48.428;11.974;2024-01-07T01:36:42;9.20;64.80
61323;DHT22;47203;48.428;11.974;2024-01-07T01:38:46;9.20;64.80
61323;DHT22;47203;48.428;11.974;2024-01-07T01:40:53;9.20;64.80
61323;DHT22;47203;48.428;11.974;2024-01-07T01:42:56;9.20;64.80
61323;DHT22;47203;48.428;11.974;2024-01-07T01:45:00;9.20;64.80
61323;DHT22;47203;48.428;11.974;2024-01-07T01:47:05;9.10;64.70
61323;DHT22;47203;48.428;11.974;2024-01-07T01:49:10;9.20;64.80
61323;DHT22;47203;48.428;11.974;2024-01-07T01:51:15;9.20;64.80
61323;DHT22;47203;48.428;11.974;2024-01-07T01:53:19;9.20;64.80
61323;DHT22;47203;48.428;11.974;2024-01-07T01:55:23;9.20;64.70
61323;DHT22;47203;48.428;11.974;2024-01-07T01:57:32;9.20;64.40
61323;DHT22;47203;48.428;11.974;2024-01-07T01:59:37;9.20;64.80
61323;DHT22;47203;48.428;11.974;2024-01-07T02:01:41;9.10;64.70
61323;DHT22;47203;48.428;11.974;2024-01-07T02:03:45;9.20;64.80
61323;DHT22;47203;48.428;11.974;2024-01-07T02:05:49;9.10;64.70
61323;DHT22;47203;48.428;11.974;2024-01-07T02:07:52;9.20;64.70
61323;DHT22;47203;48.428;11.974;2024-01-07T02:09:59;9.10;64.50
61323;DHT22;47203;48.428;11.974;2024-01-07T02:12:05;9.10;64.50
61323;DHT22;47203;48.428;11.974;2024-01-07T02:14:13;9.10;64.40
61323;DHT22;47203;48.428;11.974;2024-01-07T02:16:18;9.10;64.40
61323;DHT22;47203;48.428;11.974;2024-01-07T02:18:21;9.10;64.40
61323;DHT22;47203;48.428;11.974;2024-01-07T02:20:25;9.10;64.50
61323;DHT22;47203;48.428;11.974;2024-01-07T02:22:28;9.10;64.40
61323;DHT22;47203;48.428;11.974;2024-01-07T02:24:33;9.10;64.40
61323;DHT22;47203;48.428;11.974;2024-01-07T02:26:36;9.10;64.30
61323;DHT22;47203;48.428;11.974;2024-01-07T02:28:39;9.10;64.30
61323;DHT22;47203;48.428;11.974;2024-01-07T02:30:43;9.10;64.30
61323;DHT22;47203;48.428;11.974;2024-01-07T02:32:46;9.10;64.30
61323;DHT22;47203;48.428;11.974;2024-01-07T02:34:49;9.10;64.40
61323;DHT22;47203;48.428;11.974;2024-01-07T02:36:53;9.00;64.30
61323;DHT22;47203;48.428;11.974;2024-01-07T02:38:56;9.00;64.30
61323;DHT22;47203;48.428;11.974;2024-01-07T02:41:01;9.00;64.30
61323;DHT22;47203;48.428;11.974;2024-01-07T02:43:05;9.10;64.30
61323;DHT22;47203;48.428;11.974;2024-01-07T02:45:09;9.00;64.30
61323;DHT22;47203;48.428;11.974;2024-01-07T02:47:13;9.00;63.70
61323;DHT22;47203;48.428;11.974;2024-01-07T02:49:16;9.00;64.20
61323;DHT22;47203;48.428;11.974;2024-01-07T02:51:19;9.00;64.20
61323;DHT22;47203;48.428;11.974;2024-01-07T02:53:23;9.00;64.20
61323;DHT22;47203;48.428;11.974;2024-01-07T02:55:26;9.00;64.10
61323;DHT22;47203;48.428;11.974;2024-01-07T02:57:30;9.00;63.70
61323;DHT22;47203;48.428;11.974;2024-01-07T02:59:35;9.00;64.00
61323;DHT22;47203;48.428;11.974;2024-01-07T03:01:39;9.00;64.00
61323;DHT22;47203;48.428;11.974;2024-01-07T03:03:44;8.90;64.00
61323;DHT22;47203;48.428;11.974;2024-01-07T03:05:47;8.90;64.00
61323;DHT22;47203;48.428;11.974;2024-01-07T03:07:51;8.90;63.90
61323;DHT22;47203;48.428;11.974;2024-01-07T03:09:55;8.90;63.80
61323;DHT22;47203;48.428;11.974;2024-01-07T03:11:58;8.90;63.80
61323;DHT22;47203;48.428;11.974;2024-01-07T03:14:03;8.80;63.80
61323;DHT22;47203;48.428;11.974;2024-01-07T03:16:06;8.80;63.80
61323;DHT22;47203;48.428;11.974;2024-01-07T03:18:09;8.80;63.90
61323;DHT22;47203;48.428;11.974;2024-01-07T03:20:13;8.80;64.50
61323;DHT22;47203;48.428;11.974;2024-01-07T03:22:16;8.80;63.90
61323;DHT22;47203;48.428;11.974;2024-01-07T03:24:20;8.80;63.80
61323;DHT22;47203;48.428;11.974;2024-01-07T03:26:28;8.70;63.70
61323;DHT22;47203;48.428;11.974;2024-01-07T03:28:34;8.80;63.80
61323;DHT22;47203;48.428;11.974;2024-01-07T03:30:38;8.70;63.80
61323;DHT22;47203;48.428;11.974;2024-01-07T03:32:42;8.80;63.80
61323;DHT22;47203;48.428;11.974;2024-01-07T03:34:45;8.70;63.80
61323;DHT22;47203;48.428;11.974;2024-01-07T03:36:48;8.70;63.80
61323;DHT22;47203;48.428;11.974;2024-01-07T03:38:51;8.60;63.80
61323;DHT22;47203;48.428;11.974;2024-01-07T03:40:56;8.60;63.80
61323;DHT22;47203;48.428;11.974;2024-01-07T03:42:59;8.60;63.90
61323;DHT22;47203;48.428;11.974;2024-01-07T03:45:03;8.60;63.90
61323;DHT22;47203;48.428;11.974;2024-01-07T03:47:08;8.60;64.00
61323;DHT22;47203;48.428;11.974;2024-01-07T03:49:12;8.60;64.00
61323;DHT22;47203;48.428;11.974;2024-01-07T03:51:15;8.60;64.00
61323;DHT22;47203;48.428;11.974;2024-01-07T03:53:19;8.60;64.10
61323;DHT22;47203;48.428;11.974;2024-01-07T03:55:22;8.60;64.00
61323;DHT22;47203;48.428;11.974;2024-01-07T03:57:26;8.60;63.70
61323;DHT22;47203;48.428;11.974;2024-01-07T03:59:29;8.60;64.10
61323;DHT22;47203;48.428;11.974;2024-01-07T04:01:33;8.60;64.10
61323;DHT22;47203;48.428;11.974;2024-01-07T04:03:39;8.50;64.00
61323;DHT22;47203;48.428;11.974;2024-01-07T04:05:43;8.60;64.00
61323;DHT22;47203;48.428;11.974;2024-01-07T04:07:47;8.60;64.00
61323;DHT22;47203;48.428;11.974;2024-01-07T04:09:50;8.60;64.00
61323;DHT22;47203;48.428;11.974;2024-01-07T04:11:53;8.60;64.00
61323;DHT22;47203;48.428;11.974;2024-01-07T04:13:57;8.50;63.90
61323;DHT22;47203;48.428;11.974;2024-01-07T04:16:01;8.60;63.90
61323;DHT22;47203;48.428;11.974;2024-01-07T04:18:05;8.60;63.80
61323;DHT22;47203;48.428;11.974;2024-01-07T04:20:12;8.60;63.80
61323;DHT22;47203;48.428;11.974;2024-01-07T04:22:17;8.50;63.80
61323;DHT22;47203;48.428;11.974;2024-01-07T04:24:19;8.50;63.80
61323;DHT22;47203;48.428;11.974;2024-01-07T04:26:23;8.50;63.80
61323;DHT22;47203;48.428;11.974;2024-01-07T04:28:26;8.60;63.80
61323;DHT22;47203;48.428;11.974;2024-01-07T04:30:29;8.50;63.80
61323;DHT22;47203;48.428;11.974;2024-01-07T04:32:32;8.50;63.80
61323;DHT22;47203;48.428;11.974;2024-01-07T04:34:36;8.50;63.80
61323;DHT22;47203;48.428;11.974;2024-01-07T04:36:40;8.40;63.70
61323;DHT22;47203;48.428;11.974;2024-01-07T04:38:44;8.40;63.80
61323;DHT22;47203;48.428;11.974;2024-01-07T04:40:47;8.40;63.80
61323;DHT22;47203;48.428;11.974;2024-01-07T04:42:51;8.40;63.80
61323;DHT22;47203;48.428;11.974;2024-01-07T04:44:54;8.40;63.80
61323;DHT22;47203;48.428;11.974;2024-01-07T04:46:56;8.40;63.90
61323;DHT22;47203;48.428;11.974;2024-01-07T04:49:01;8.40;63.90
61323;DHT22;47203;48.428;11.974;2024-01-07T04:51:04;8.40;63.80
61323;DHT22;47203;48.428;11.974;2024-01-07T04:53:09;8.40;63.80
61323;DHT22;47203;48.428;11.974;2024-01-07T04:55:13;8.40;63.80
61323;DHT22;47203;48.428;11.974;2024-01-07T04:57:17;8.40;63.40
61323;DHT22;47203;48.428;11.974;2024-01-07T04:59:20;8.30;63.70
61323;DHT22;47203;48.428;11.974;2024-01-07T05:01:23;8.40;63.80
61323;DHT22;47203;48.428;11.974;2024-01-07T05:03:27;8.40;63.70
61323;DHT22;47203;48.428;11.974;2024-01-07T05:05:29;8.30;63.70
61323;DHT22;47203;48.428;11.974;2024-01-07T05:07:32;8.30;63.70
61323;DHT22;47203;48.428;11.974;2024-01-07T05:09:38;8.40;63.70
61323;DHT22;47203;48.428;11.974;2024-01-07T05:11:42;8.40;63.60
61323;DHT22;47203;48.428;11.974;2024-01-07T05:13:46;8.40;63.60
61323;DHT22;47203;48.428;11.974;2024-01-07T05:15:49;8.30;63.60
61323;DHT22;47203;48.428;11.974;2024-01-07T05:17:55;8.30;63.50
61323;DHT22;47203;48.428;11.974;2024-01-07T05:19:59;8.30;63.50
61323;DHT22;47203;48.428;11.974;2024-01-07T05:22:03;8.30;63.50
61323;DHT22;47203;48.428;11.974;2024-01-07T05:24:06;8.30;63.50
61323;DHT22;47203;48.428;11.974;2024-01-07T05:26:11;8.30;63.50
61323;DHT22;47203;48.428;11.974;2024-01-07T05:28:15;8.20;63.50
61323;DHT22;47203;48.428;11.974;2024-01-07T05:30:21;8.20;63.50
61323;DHT22;47203;48.428;11.974;2024-01-07T05:32:26;8.20;63.50
61323;DHT22;47203;48.428;11.974;2024-01-07T05:34:28;8.10;63.40
61323;DHT22;47203;48.428;11.974;2024-01-07T05:36:32;8.20;63.00
61323;DHT22;47203;48.428;11.974;2024-01-07T05:38:36;8.20;63.50
61323;DHT22;47203;48.428;11.974;2024-01-07T05:40:40;8.20;63.50
61323;DHT22;47203;48.428;11.974;2024-01-07T05:42:45;8.20;63.50
61323;DHT22;47203;48.428;11.974;2024-01-07T05:44:48;8.10;63.40
61323;DHT22;47203;48.428;11.974;2024-01-07T05:46:52;8.20;63.50
61323;DHT22;47203;48.428;11.974;2024-01-07T05:48:55;8.10;62.90
61323;DHT22;47203;48.428;11.974;2024-01-07T05:50:59;8.10;63.40
61323;DHT22;47203;48.428;11.974;2024-01-07T05:53:04;8.10;63.40
61323;DHT22;47203;48.428;11.974;2024-01-07T05:55:08;8.10;63.40
61323;DHT22;47203;48.428;11.974;2024-01-07T05:57:12;8.10;62.90
61323;DHT22;47203;48.428;11.974;2024-01-07T05:59:16;8.10;63.40
61323;DHT22;47203;48.428;11.974;2024-01-07T06:01:20;8.10;63.40
61323;DHT22;47203;48.428;11.974;2024-01-07T06:03:24;8.00;64.00
61323;DHT22;47203;48.428;11.974;2024-01-07T06:05:28;8.10;63.40
61323;DHT22;47203;48.428;11.974;2024-01-07T06:07:32;8.10;63.40
61323;DHT22;47203;48.428;11.974;2024-01-07T06:09:35;8.10;63.30
61323;DHT22;47203;48.428;11.974;2024-01-07T06:11:39;8.00;63.30
61323;DHT22;47203;48.428;11.974;2024-01-07T06:13:42;8.00;63.30
61323;DHT22;47203;48.428;11.974;2024-01-07T06:15:47;8.00;63.20
61323;DHT22;47203;48.428;11.974;2024-01-07T06:17:51;8.00;63.20
61323;DHT22;47203;48.428;11.974;2024-01-07T06:19:54;8.00;63.20
61323;DHT22;47203;48.428;11.974;2024-01-07T06:21:58;8.00;63.30
61323;DHT22;47203;48.428;11.974;2024-01-07T06:24:01;8.00;63.30
61323;DHT22;47203;48.428;11.974;2024-01-07T06:26:05;8.00;63.30
61323;DHT22;47203;48.428;11.974;2024-01-07T06:28:09;8.00;63.30
61323;DHT22;47203;48.428;11.974;2024-01-07T06:30:13;8.00;63.40
61323;DHT22;47203;48.428;11.974;2024-01-07T06:32:20;8.00;62.90
61323;DHT22;47203;48.428;11.974;2024-01-07T06:34:23;8.00;63.40
61323;DHT22;47203;48.428;11.974;2024-01-07T06:36:27;7.90;63.30
61323;DHT22;47203;48.428;11.974;2024-01-07T06:38:30;8.00;63.30
61323;DHT22;47203;48.428;11.974;2024-01-07T06:40:34;7.90;63.30
61323;DHT22;47203;48.428;11.974;2024-01-07T06:42:37;7.90;62.80
61323;DHT22;47203;48.428;11.974;2024-01-07T06:44:40;7.90;63.30
61323;DHT22;47203;48.428;11.974;2024-01-07T06:46:44;7.90;63.20
61323;DHT22;47203;48.428;11.974;2024-01-07T06:48:48;7.90;63.20
61323;DHT22;47203;48.428;11.974;2024-01-07T06:50:53;7.90;63.20
61323;DHT22;47203;48.428;11.974;2024-01-07T06:52:56;7.90;63.20
61323;DHT22;47203;48.428;11.974;2024-01-07T06:55:00;8.00;63.30
61323;DHT22;47203;48.428;11.974;2024-01-07T06:57:04;7.90;62.70
61323;DHT22;47203;48.428;11.974;2024-01-07T06:59:07;7.90;63.20
61323;DHT22;47203;48.428;11.974;2024-01-07T07:01:12;7.80;63.10
61323;DHT22;47203;48.428;11.974;2024-01-07T07:03:16;7.80;62.70
61323;DHT22;47203;48.428;11.974;2024-01-07T07:05:20;7.80;63.20
61323;DHT22;47203;48.428;11.974;2024-01-07T07:07:23;7.80;63.20
61323;DHT22;47203;48.428;11.974;2024-01-07T07:09:27;7.80;63.20
61323;DHT22;47203;48.428;11.974;2024-01-07T07:11:30;7.80;62.70
61323;DHT22;47203;48.428;11.974;2024-01-07T07:13:34;7.80;63.20
61323;DHT22;47203;48.428;11.974;2024-01-07T07:15:38;7.80;63.20
61323;DHT22;47203;48.428;11.974;2024-01-07T07:17:42;7.80;63.20
61323;DHT22;47203;48.428;11.974;2024-01-07T07:19:46;7.80;62.80
61323;DHT22;47203;48.428;11.974;2024-01-07T07:21:51;7.70;63.20
61323;DHT22;47203;48.428;11.974;2024-01-07T07:23:54;7.80;63.30
61323;DHT22;47203;48.428;11.974;2024-01-07T07:25:58;7.80;63.30
61323;DHT22;47203;48.428;11.974;2024-01-07T07:28:01;7.80;63.30
61323;DHT22;47203;48.428;11.974;2024-01-07T07:30:06;7.80;63.30
61323;DHT22;47203;48.428;11.974;2024-01-07T07:32:11;7.80;63.20
61323;DHT22;47203;48.428;11.974;2024-01-07T07:34:14;7.80;63.20
61323;DHT22;47203;48.428;11.974;2024-01-07T07:36:18;7.80;63.20
61323;DHT22;47203;48.428;11.974;2024-01-07T07:38:22;7.80;63.20
61323;DHT22;47203;48.428;11.974;2024-01-07T07:40:26;7.80;63.20
61323;DHT22;47203;48.428;11.974;2024-01-07T07:42:28;7.80;63.20
61323;DHT22;47203;48.428;11.974;2024-01-07T07:44:32;7.80;63.20
61323;DHT22;47203;48.428;11.974;2024-01-07T07:46:35;7.80;63.20
61323;DHT22;47203;48.428;11.974;2024-01-07T07:48:39;7.80;63.30
61323;DHT22;47203;48.428;11.974;2024-01-07T07:50:43;7.80;63.20
61323;DHT22;47203;48.428;11.974;2024-01-07T07:52:46;7.80;63.30
61323;DHT22;47203;48.428;11.974;2024-01-07T07:54:51;7.80;63.20
61323;DHT22;47203;48.428;11.974;2024-01-07T07:56:54;7.80;62.70
61323;DHT22;47203;48.428;11.974;2024-01-07T07:58:57;7.70;63.10
61323;DHT22;47203;48.428;11.974;2024-01-07T08:01:00;7.80;63.10
61323;DHT22;47203;48.428;11.974;2024-01-07T08:03:05;7.70;63.00
61323;DHT22;47203;48.428;11.974;2024-01-07T08:05:09;7.80;63.10
61323;DHT22;47203;48.428;11.974;2024-01-07T08:07:14;7.70;63.00
61323;DHT22;47203;48.428;11.974;2024-01-07T08:09:17;7.70;63.00
61323;DHT22;47203;48.428;11.974;2024-01-07T08:11:22;7.70;63.10
61323;DHT22;47203;48.428;11.974;2024-01-07T08:13:26;7.70;63.00
61323;DHT22;47203;48.428;11.974;2024-01-07T08:15:29;7.70;63.00
61323;DHT22;47203;48.428;11.974;2024-01-07T08:17:33;7.70;63.00
61323;DHT22;47203;48.428;11.974;2024-01-07T08:19:36;7.70;63.00
61323;DHT22;47203;48.428;11.974;2024-01-07T08:21:40;7.70;63.00
61323;DHT22;47203;48.428;11.974;2024-01-07T08:23:44;7.70;63.00
61323;DHT22;47203;48.428;11.974;2024-01-07T08:25:47;7.70;63.00
61323;DHT22;47203;48.428;11.974;2024-01-07T08:27:54;7.70;63.10
61323;DHT22;47203;48.428;11.974;2024-01-07T08:29:57;7.70;63.00
61323;DHT22;47203;48.428;11.974;2024-01-07T08:32:02;7.70;63.10
61323;DHT22;47203;48.428;11.974;2024-01-07T08:34:06;7.70;63.10
61323;DHT22;47203;48.428;11.974;2024-01-07T08:36:09;7.70;63.10
61323;DHT22;47203;48.428;11.974;2024-01-07T08:38:12;7.80;63.20
61323;DHT22;47203;48.428;11.974;2024-01-07T08:40:16;7.70;63.10
61323;DHT22;47203;48.428;11.974;2024-01-07T08:42:24;7.70;63.10
61323;DHT22;47203;48.428;11.974;2024-01-07T08:44:32;7.70;63.10
61323;DHT22;47203;48.428;11.974;2024-01-07T08:46:37;7.70;63.10
61323;DHT22;47203;48.428;11.974;2024-01-07T08:48:41;7.70;63.10
61323;DHT22;47203;48.428;11.974;2024-01-07T08:50:44;7.70;63.10
61323;DHT22;47203;48.428;11.974;2024-01-07T08:52:48;7.70;63.10
61323;DHT22;47203;48.428;11.974;2024-01-07T08:54:51;7.70;63.10
61323;DHT22;47203;48.428;11.974;2024-01-07T08:56:55;7.80;62.70
61323;DHT22;47203;48.428;11.974;2024-01-07T08:58:59;7.70;63.10
61323;DHT22;47203;48.428;11.974;2024-01-07T09:01:03;7.70;63.10
61323;DHT22;47203;48.428;11.974;2024-01-07T09:03:07;7.70;63.10
61323;DHT22;47203;48.428;11.974;2024-01-07T09:05:11;7.80;63.10
61323;DHT22;47203;48.428;11.974;2024-01-07T09:07:15;7.80;63.10
61323;DHT22;47203;48.428;11.974;2024-01-07T09:09:19;7.80;63.00
61323;DHT22;47203;48.428;11.974;2024-01-07T09:11:24;7.80;63.00
61323;DHT22;47203;48.428;11.974;2024-01-07T09:13:28;7.80;62.90
61323;DHT22;47203;48.428;11.974;2024-01-07T09:15:31;7.80;63.00
61323;DHT22;47203;48.428;11.974;2024-01-07T09:17:36;7.80;62.90
61323;DHT22;47203;48.428;11.974;2024-01-07T09:19:41;7.90;62.90
61323;DHT22;47203;48.428;11.974;2024-01-07T09:21:45;7.90;62.90
61323;DHT22;47203;48.428;11.974;2024-01-07T09:23:48;7.90;62.90
61323;DHT22;47203;48.428;11.974;2024-01-07T09:25:52;7.90;62.90
61323;DHT22;47203;48.428;11.974;2024-01-07T09:27:55;7.90;62.80
61323;DHT22;47203;48.428;11.974;2024-01-07T09:29:59;7.80;62.20
61323;DHT22;47203;48.428;11.974;2024-01-07T09:32:03;7.90;62.80
61323;DHT22;47203;48.428;11.974;2024-01-07T09:34:08;7.90;62.80
61323;DHT22;47203;48.428;11.974;2024-01-07T09:36:13;7.90;62.80
61323;DHT22;47203;48.428;11.974;2024-01-07T09:38:30;7.90;62.80
61323;DHT22;47203;48.428;11.974;2024-01-07T09:40:34;7.90;62.20
61323;DHT22;47203;48.428;11.974;2024-01-07T09:42:37;7.90;62.70
61323;DHT22;47203;48.428;11.974;2024-01-07T09:44:41;7.90;62.80
61323;DHT22;47203;48.428;11.974;2024-01-07T09:46:45;7.90;63.00
61323;DHT22;47203;48.428;11.974;2024-01-07T09:48:53;8.60;63.40
61323;DHT22;47203;48.428;11.974;2024-01-07T09:51:00;7.90;63.00
61323;DHT22;47203;48.428;11.974;2024-01-07T09:53:04;8.00;62.90
61323;DHT22;47203;48.428;11.974;2024-01-07T09:55:13;8.00;62.90
61323;DHT22;47203;48.428;11.974;2024-01-07T09:57:30;8.00;62.80
61323;DHT22;47203;48.428;11.974;2024-01-07T09:59:34;8.00;62.80
61323;DHT22;47203;48.428;11.974;2024-01-07T10:01:40;8.30;62.90
61323;DHT22;47203;48.428;11.974;2024-01-07T10:03:44;8.00;62.70
61323;DHT22;47203;48.428;11.974;2024-01-07T10:05:48;8.00;62.70
61323;DHT22;47203;48.428;11.974;2024-01-07T10:07:52;8.00;62.70
61323;DHT22;47203;48.428;11.974;2024-01-07T10:09:57;8.00;62.60
61323;DHT22;47203;48.428;11.974;2024-01-07T10:12:01;8.10;62.70
61323;DHT22;47203;48.428;11.974;2024-01-07T10:14:05;9.30;63.40
61323;DHT22;47203;48.428;11.974;2024-01-07T10:16:08;8.10;62.60
61323;DHT22;47203;48.428;11.974;2024-01-07T10:18:11;8.10;62.60
61323;DHT22;47203;48.428;11.974;2024-01-07T10:20:17;8.00;62.60
61323;DHT22;47203;48.428;11.974;2024-01-07T10:22:21;8.00;62.40
61323;DHT22;47203;48.428;11.974;2024-01-07T10:24:26;8.10;62.40
61323;DHT22;47203;48.428;11.974;2024-01-07T10:26:35;8.10;62.30
61323;DHT22;47203;48.428;11.974;2024-01-07T10:28:40;8.20;62.40
61323;DHT22;47203;48.428;11.974;2024-01-07T10:30:49;8.00;62.20
61323;DHT22;47203;48.428;11.974;2024-01-07T10:32:55;8.10;62.20
61323;DHT22;47203;48.428;11.974;2024-01-07T10:35:02;8.00;62.10
61323;DHT22;47203;48.428;11.974;2024-01-07T10:37:09;8.00;62.10
61323;DHT22;47203;48.428;11.974;2024-01-07T10:39:15;8.00;62.10
61323;DHT22;47203;48.428;11.974;2024-01-07T10:41:20;7.90;62.00
61323;DHT22;47203;48.428;11.974;2024-01-07T10:43:24;7.90;62.00
61323;DHT22;47203;48.428;11.974;2024-01-07T10:45:31;7.90;62.10
61323;DHT22;47203;48.428;11.974;2024-01-07T10:47:36;7.90;62.20
61323;DHT22;47203;48.428;11.974;2024-01-07T10:49:44;7.90;62.10
61323;DHT22;47203;48.428;11.974;2024-01-07T10:52:02;7.90;62.00
61323;DHT22;47203;48.428;11.974;2024-01-07T10:54:08;7.90;62.00
61323;DHT22;47203;48.428;11.974;2024-01-07T10:56:20;7.90;62.00
61323;DHT22;47203;48.428;11.974;2024-01-07T10:58:26;7.90;61.90
61323;DHT22;47203;48.428;11.974;2024-01-07T11:00:29;7.90;61.90
61323;DHT22;47203;48.428;11.974;2024-01-07T11:02:41;7.90;61.90
61323;DHT22;47203;48.428;11.974;2024-01-07T11:05:00;7.90;62.00
61323;DHT22;47203;48.428;11.974;2024-01-07T11:07:18;7.90;62.00
61323;DHT22;47203;48.428;11.974;2024-01-07T11:09:31;7.90;61.90
61323;DHT22;47203;48.428;11.974;2024-01-07T11:11:39;7.90;61.20
61323;DHT22;47203;48.428;11.974;2024-01-07T11:13:44;7.90;61.90
61323;DHT22;47203;48.428;11.974;2024-01-07T11:15:54;7.90;61.70
61323;DHT22;47203;48.428;11.974;2024-01-07T11:17:57;7.90;61.60
61323;DHT22;47203;48.428;11.974;2024-01-07T11:20:00;7.80;61.50
61323;DHT22;47203;48.428;11.974;2024-01-07T11:22:24;7.80;61.50
61323;DHT22;47203;48.428;11.974;2024-01-07T11:24:39;7.80;61.60
61323;DHT22;47203;48.428;11.974;2024-01-07T11:26:46;7.80;61.40
61323;DHT22;47203;48.428;11.974;2024-01-07T11:28:51;7.70;61.40
61323;DHT22;47203;48.428;11.974;2024-01-07T11:30:56;7.70;61.40
61323;DHT22;47203;48.428;11.974;2024-01-07T11:33:00;7.70;61.50
61323;DHT22;47203;48.428;11.974;2024-01-07T11:35:04;7.60;61.50
61323;DHT22;47203;48.428;11.974;2024-01-07T11:37:10;7.60;61.70
61323;DHT22;47203;48.428;11.974;2024-01-07T11:39:15;7.60;61.60
61323;DHT22;47203;48.428;11.974;2024-01-07T11:41:19;7.50;60.80
61323;DHT22;47203;48.428;11.974;2024-01-07T11:43:25;7.50;61.50
61323;DHT22;47203;48.428;11.974;2024-01-07T11:45:27;7.50;61.50
61323;DHT22;47203;48.428;11.974;2024-01-07T11:47:31;7.50;61.60
61323;DHT22;47203;48.428;11.974;2024-01-07T11:49:34;7.50;61.60
61323;DHT22;47203;48.428;11.974;2024-01-07T11:51:37;7.40;61.70
61323;DHT22;47203;48.428;11.974;2024-01-07T11:53:41;7.40;61.80
61323;DHT22;47203;48.428;11.974;2024-01-07T11:55:45;7.40;61.80
61323;DHT22;47203;48.428;11.974;2024-01-07T11:57:49;7.40;61.80
61323;DHT22;47203;48.428;11.974;2024-01-07T11:59:55;7.30;61.80
61323;DHT22;47203;48.428;11.974;2024-01-07T12:01:59;7.30;61.80
61323;DHT22;47203;48.428;11.974;2024-01-07T12:04:04;7.30;61.90
61323;DHT22;47203;48.428;11.974;2024-01-07T12:06:07;7.30;61.80
61323;DHT22;47203;48.428;11.974;2024-01-07T12:08:15;7.30;61.80
61323;DHT22;47203;48.428;11.974;2024-01-07T12:10:18;7.30;61.90
61323;DHT22;47203;48.428;11.974;2024-01-07T12:12:22;7.30;62.00
61323;DHT22;47203;48.428;11.974;2024-01-07T12:14:26;7.30;62.00
61323;DHT22;47203;48.428;11.974;2024-01-07T12:16:31;7.30;62.00
61323;DHT22;47203;48.428;11.974;2024-01-07T12:18:36;7.30;62.00
61323;DHT22;47203;48.428;11.974;2024-01-07T12:20:40;7.30;61.70
61323;DHT22;47203;48.428;11.974;2024-01-07T12:22:42;7.30;62.20
61323;DHT22;47203;48.428;11.974;2024-01-07T12:24:46;7.30;62.20
61323;DHT22;47203;48.428;11.974;2024-01-07T12:26:49;7.30;62.20
61323;DHT22;47203;48.428;11.974;2024-01-07T12:28:53;7.30;62.20
61323;DHT22;47203;48.428;11.974;2024-01-07T12:30:58;7.40;62.20
61323;DHT22;47203;48.428;11.974;2024-01-07T12:33:05;7.30;62.10
61323;DHT22;47203;48.428;11.974;2024-01-07T12:35:09;7.40;62.20
61323;DHT22;47203;48.428;11.974;2024-01-07T12:37:13;7.40;62.10
61323;DHT22;47203;48.428;11.974;2024-01-07T12:39:16;7.40;62.10
61323;DHT22;47203;48.428;11.974;2024-01-07T12:41:21;7.40;62.10
61323;DHT22;47203;48.428;11.974;2024-01-07T12:43:25;7.40;62.00
61323;DHT22;47203;48.428;11.974;2024-01-07T12:45:28;7.40;61.90
61323;DHT22;47203;48.428;11.974;2024-01-07T12:47:32;7.50;62.00
61323;DHT22;47203;48.428;11.974;2024-01-07T12:49:36;7.50;62.50
61323;DHT22;47203;48.428;11.974;2024-01-07T12:51:40;7.50;61.80
61323;DHT22;47203;48.428;11.974;2024-01-07T12:53:44;7.50;61.80
61323;DHT22;47203;48.428;11.974;2024-01-07T12:55:47;7.50;61.80
61323;DHT22;47203;48.428;11.974;2024-01-07T12:57:51;7.50;61.10
61323;DHT22;47203;48.428;11.974;2024-01-07T12:59:54;7.60;61.60
61323;DHT22;47203;48.428;11.974;2024-01-07T13:01:58;7.60;61.50
61323;DHT22;47203;48.428;11.974;2024-01-07T13:04:02;7.60;61.40
61323;DHT22;47203;48.428;11.974;2024-01-07T13:06:07;7.60;61.40